sensor_id;sensor_type;location;lat;lon;timestamp;temperature;humidity
26035;DHT22;13809;48.632;11.576;2023-07-24T00:02:13;23.80;26.30
26035;DHT22;13809;48.632;11.576;2023-07-24T00:07:16;23.70;26.10
26035;DHT22;13809;48.632;11.576;2023-07-24T00:12:21;23.60;26.10
26035;DHT22;13809;48.632;11.576;2023-07-24T00:17:24;23.50;26.60
26035;DHT22;13809;48.632;11.576;2023-07-24T00:22:28;23.40;27.00
26035;DHT22;13809;48.632;11.576;2023-07-24T00:27:32;23.40;26.40
26035;DHT22;13809;48.632;11.576;2023-07-24T00:32:35;23.30;26.90
26035;DHT22;13809;48.632;11.576;2023-07-24T00:37:39;23.20;26.80
26035;DHT22;13809;48.632;11.576;2023-07-24T00:42:47;23.30;26.70
26035;DHT22;13809;48.632;11.576;2023-07-24T00:47:51;23.30;27.50
26035;DHT22;13809;48.632;11.576;2023-07-24T00:52:54;23.30;26.80
26035;DHT22;13809;48.632;11.576;2023-07-24T00:58:00;23.30;27.00
26035;DHT22;13809;48.632;11.576;2023-07-24T01:03:03;23.30;27.50
26035;DHT22;13809;48.632;11.576;2023-07-24T01:08:06;23.20;27.10
26035;DHT22;13809;48.632;11.576;2023-07-24T01:13:15;23.20;27.20
26035;DHT22;13809;48.632;11.576;2023-07-24T01:18:23;23.20;27.50
26035;DHT22;13809;48.632;11.576;2023-07-24T01:23:41;23.20;27.50
26035;DHT22;13809;48.632;11.576;2023-07-24T01:28:49;23.20;27.50
26035;DHT22;13809;48.632;11.576;2023-07-24T01:33:52;23.20;27.50
26035;DHT22;13809;48.632;11.576;2023-07-24T01:38:56;23.10;27.40
26035;DHT22;13809;48.632;11.576;2023-07-24T01:44:00;23.10;27.40
26035;DHT22;13809;48.632;11.576;2023-07-24T01:49:04;23.10;27.60
26035;DHT22;13809;48.632;11.576;2023-07-24T01:54:07;22.90;27.30
26035;DHT22;13809;48.632;11.576;2023-07-24T01:59:11;22.90;27.70
26035;DHT22;13809;48.632;11.576;2023-07-24T02:04:15;22.80;28.20
26035;DHT22;13809;48.632;11.576;2023-07-24T02:09:18;22.80;28.20
26035;DHT22;13809;48.632;11.576;2023-07-24T02:14:23;22.80;28.80
26035;DHT22;13809;48.632;11.576;2023-07-24T02:19:26;22.80;28.80
26035;DHT22;13809;48.632;11.576;2023-07-24T02:24:29;22.70;28.20
26035;DHT22;13809;48.632;11.576;2023-07-24T02:29:34;22.70;28.40
26035;DHT22;13809;48.632;11.576;2023-07-24T02:34:37;22.60;28.90
26035;DHT22;13809;48.632;11.576;2023-07-24T02:39:40;22.60;28.80
26035;DHT22;13809;48.632;11.576;2023-07-24T02:44:45;22.60;28.90
26035;DHT22;13809;48.632;11.576;2023-07-24T02:49:48;22.50;29.50
26035;DHT22;13809;48.632;11.576;2023-07-24T02:54:51;22.50;29.10
26035;DHT22;13809;48.632;11.576;2023-07-24T02:59:56;22.40;29.10
26035;DHT22;13809;48.632;11.576;2023-07-24T03:04:59;22.30;29.70
26035;DHT22;13809;48.632;11.576;2023-07-24T03:10:03;22.30;29.40
26035;DHT22;13809;48.632;11.576;2023-07-24T03:15:08;22.40;29.70
26035;DHT22;13809;48.632;11.576;2023-07-24T03:20:14;22.30;29.80
26035;DHT22;13809;48.632;11.576;2023-07-24T03:25:17;22.20;30.30
26035;DHT22;13809;48.632;11.576;2023-07-24T03:30:22;22.00;30.10
26035;DHT22;13809;48.632;11.576;2023-07-24T03:35:25;21.90;31.60
26035;DHT22;13809;48.632;11.576;2023-07-24T03:40:29;21.80;31.30
26035;DHT22;13809;48.632;11.576;2023-07-24T03:45:33;21.90;31.70
26035;DHT22;13809;48.632;11.576;2023-07-24T03:50:37;21.90;32.70
26035;DHT22;13809;48.632;11.576;2023-07-24T03:55:40;22.00;32.00
26035;DHT22;13809;48.632;11.576;2023-07-24T04:00:44;21.90;31.90
26035;DHT22;13809;48.632;11.576;2023-07-24T04:05:48;21.80;33.00
26035;DHT22;13809;48.632;11.576;2023-07-24T04:10:51;21.60;32.40
26035;DHT22;13809;48.632;11.576;2023-07-24T04:15:55;21.40;33.10
26035;DHT22;13809;48.632;11.576;2023-07-24T04:21:01;21.30;34.10
26035;DHT22;13809;48.632;11.576;2023-07-24T04:26:04;21.20;33.60
26035;DHT22;13809;48.632;11.576;2023-07-24T04:31:09;21.30;34.00
26035;DHT22;13809;48.632;11.576;2023-07-24T04:36:12;21.30;34.90
26035;DHT22;13809;48.632;11.576;2023-07-24T04:41:19;21.20;34.10
26035;DHT22;13809;48.632;11.576;2023-07-24T04:46:23;21.20;34.80
26035;DHT22;13809;48.632;11.576;2023-07-24T04:51:27;21.20;36.00
26035;DHT22;13809;48.632;11.576;2023-07-24T04:56:30;21.20;35.30
26035;DHT22;13809;48.632;11.576;2023-07-24T05:01:35;21.20;35.30
26035;DHT22;13809;48.632;11.576;2023-07-24T05:06:38;21.30;36.50
26035;DHT22;13809;48.632;11.576;2023-07-24T05:11:41;21.40;36.10
26035;DHT22;13809;48.632;11.576;2023-07-24T05:16:47;21.40;35.90
26035;DHT22;13809;48.632;11.576;2023-07-24T05:21:51;21.50;37.20
26035;DHT22;13809;48.632;11.576;2023-07-24T05:26:54;21.60;36.30
26035;DHT22;13809;48.632;11.576;2023-07-24T05:31:59;21.80;36.90
26035;DHT22;13809;48.632;11.576;2023-07-24T05:37:02;21.80;38.00
26035;DHT22;13809;48.632;11.576;2023-07-24T05:42:05;21.90;36.60
26035;DHT22;13809;48.632;11.576;2023-07-24T05:47:10;22.00;37.00
26035;DHT22;13809;48.632;11.576;2023-07-24T05:52:16;22.10;38.30
26035;DHT22;13809;48.632;11.576;2023-07-24T05:57:20;22.20;37.20
26035;DHT22;13809;48.632;11.576;2023-07-24T06:02:24;22.30;37.30
26035;DHT22;13809;48.632;11.576;2023-07-24T06:07:27;22.40;38.50
26035;DHT22;13809;48.632;11.576;2023-07-24T06:12:31;22.40;37.60
26035;DHT22;13809;48.632;11.576;2023-07-24T06:17:35;22.50;38.00
26035;DHT22;13809;48.632;11.576;2023-07-24T06:22:38;22.50;38.80
26035;DHT22;13809;48.632;11.576;2023-07-24T06:27:41;22.60;38.60
26035;DHT22;13809;48.632;11.576;2023-07-24T06:32:46;22.70;38.90
26035;DHT22;13809;48.632;11.576;2023-07-24T06:37:49;22.70;39.50
26035;DHT22;13809;48.632;11.576;2023-07-24T06:42:53;22.70;38.90
26035;DHT22;13809;48.632;11.576;2023-07-24T06:47:57;22.80;39.00
26035;DHT22;13809;48.632;11.576;2023-07-24T06:53:00;22.90;40.00
26035;DHT22;13809;48.632;11.576;2023-07-24T06:58:03;23.00;39.10
26035;DHT22;13809;48.632;11.576;2023-07-24T07:03:08;23.10;39.20
26035;DHT22;13809;48.632;11.576;2023-07-24T07:08:11;23.10;40.10
26035;DHT22;13809;48.632;11.576;2023-07-24T07:13:14;23.20;39.30
26035;DHT22;13809;48.632;11.576;2023-07-24T07:18:19;23.30;39.40
26035;DHT22;13809;48.632;11.576;2023-07-24T07:23:22;23.30;39.50
26035;DHT22;13809;48.632;11.576;2023-07-24T07:28:25;23.30;39.40
26035;DHT22;13809;48.632;11.576;2023-07-24T07:33:30;23.20;39.30
26035;DHT22;13809;48.632;11.576;2023-07-24T07:38:33;23.00;40.90
26035;DHT22;13809;48.632;11.576;2023-07-24T07:43:37;22.60;40.00
26035;DHT22;13809;48.632;11.576;2023-07-24T07:48:42;22.40;40.50
26035;DHT22;13809;48.632;11.576;2023-07-24T07:53:45;22.20;41.90
26035;DHT22;13809;48.632;11.576;2023-07-24T07:58:48;22.10;41.20
26035;DHT22;13809;48.632;11.576;2023-07-24T08:03:53;22.10;41.40
26035;DHT22;13809;48.632;11.576;2023-07-24T08:08:56;22.00;42.60
26035;DHT22;13809;48.632;11.576;2023-07-24T08:13:59;21.90;42.00
26035;DHT22;13809;48.632;11.576;2023-07-24T08:19:11;21.80;42.20
26035;DHT22;13809;48.632;11.576;2023-07-24T08:24:14;21.80;43.30
26035;DHT22;13809;48.632;11.576;2023-07-24T08:29:17;21.70;42.40
26035;DHT22;13809;48.632;11.576;2023-07-24T08:34:22;21.60;42.60
26035;DHT22;13809;48.632;11.576;2023-07-24T08:39:25;21.60;43.90
26035;DHT22;13809;48.632;11.576;2023-07-24T08:44:29;21.50;43.20
26035;DHT22;13809;48.632;11.576;2023-07-24T08:49:35;21.50;43.60
26035;DHT22;13809;48.632;11.576;2023-07-24T08:54:39;21.50;44.30
26035;DHT22;13809;48.632;11.576;2023-07-24T08:59:43;21.60;43.10
26035;DHT22;13809;48.632;11.576;2023-07-24T09:04:47;21.70;43.20
26035;DHT22;13809;48.632;11.576;2023-07-24T09:09:50;21.80;44.30
26035;DHT22;13809;48.632;11.576;2023-07-24T09:15:02;21.80;43.30
26035;DHT22;13809;48.632;11.576;2023-07-24T09:20:10;22.00;46.80
26035;DHT22;13809;48.632;11.576;2023-07-24T09:25:13;22.20;46.20
26035;DHT22;13809;48.632;11.576;2023-07-24T09:30:16;22.40;44.50
26035;DHT22;13809;48.632;11.576;2023-07-24T09:35:26;22.70;44.90
26035;DHT22;13809;48.632;11.576;2023-07-24T09:40:39;23.00;45.30
26035;DHT22;13809;48.632;11.576;2023-07-24T09:45:43;23.20;45.80
26035;DHT22;13809;48.632;11.576;2023-07-24T09:50:52;23.60;44.80
26035;DHT22;13809;48.632;11.576;2023-07-24T09:55:57;23.90;46.60
26035;DHT22;13809;48.632;11.576;2023-07-24T10:01:02;24.20;45.80
26035;DHT22;13809;48.632;11.576;2023-07-24T10:06:09;24.50;44.00
26035;DHT22;13809;48.632;11.576;2023-07-24T10:11:14;24.70;43.50
26035;DHT22;13809;48.632;11.576;2023-07-24T10:16:17;24.80;43.00
26035;DHT22;13809;48.632;11.576;2023-07-24T10:21:27;24.80;42.80
26035;DHT22;13809;48.632;11.576;2023-07-24T10:26:34;24.70;43.80
26035;DHT22;13809;48.632;11.576;2023-07-24T10:31:38;24.60;43.90
26035;DHT22;13809;48.632;11.576;2023-07-24T10:36:44;24.50;43.10
26035;DHT22;13809;48.632;11.576;2023-07-24T10:41:47;24.40;43.50
26035;DHT22;13809;48.632;11.576;2023-07-24T10:46:51;24.40;43.20
26035;DHT22;13809;48.632;11.576;2023-07-24T10:51:56;24.50;43.50
26035;DHT22;13809;48.632;11.576;2023-07-24T10:57:00;24.50;43.80
26035;DHT22;13809;48.632;11.576;2023-07-24T11:02:04;24.50;43.20
26035;DHT22;13809;48.632;11.576;2023-07-24T11:07:08;24.60;43.80
26035;DHT22;13809;48.632;11.576;2023-07-24T11:12:13;24.70;43.50
26035;DHT22;13809;48.632;11.576;2023-07-24T11:17:17;24.80;42.80
26035;DHT22;13809;48.632;11.576;2023-07-24T11:22:22;24.90;42.30
26035;DHT22;13809;48.632;11.576;2023-07-24T11:27:26;25.00;42.60
26035;DHT22;13809;48.632;11.576;2023-07-24T11:32:29;25.10;42.00
26035;DHT22;13809;48.632;11.576;2023-07-24T11:37:34;25.20;42.10
26035;DHT22;13809;48.632;11.576;2023-07-24T11:42:38;25.30;42.30
26035;DHT22;13809;48.632;11.576;2023-07-24T11:47:43;25.40;41.70
26035;DHT22;13809;48.632;11.576;2023-07-24T11:52:49;25.70;41.30
26035;DHT22;13809;48.632;11.576;2023-07-24T11:57:56;25.90;41.40
26035;DHT22;13809;48.632;11.576;2023-07-24T12:03:00;26.00;40.90
26035;DHT22;13809;48.632;11.576;2023-07-24T12:08:05;26.20;40.80
26035;DHT22;13809;48.632;11.576;2023-07-24T12:13:08;26.20;40.30
26035;DHT22;13809;48.632;11.576;2023-07-24T12:18:11;26.30;39.70
26035;DHT22;13809;48.632;11.576;2023-07-24T12:23:16;26.30;39.50
26035;DHT22;13809;48.632;11.576;2023-07-24T12:28:20;26.30;40.30
26035;DHT22;13809;48.632;11.576;2023-07-24T12:33:23;26.20;40.30
26035;DHT22;13809;48.632;11.576;2023-07-24T12:38:28;26.10;40.50
26035;DHT22;13809;48.632;11.576;2023-07-24T12:43:32;25.90;42.00
26035;DHT22;13809;48.632;11.576;2023-07-24T12:48:35;25.60;40.50
26035;DHT22;13809;48.632;11.576;2023-07-24T12:53:39;25.20;40.70
26035;DHT22;13809;48.632;11.576;2023-07-24T12:58:52;24.90;40.80
26035;DHT22;13809;48.632;11.576;2023-07-24T13:03:56;24.60;40.80
26035;DHT22;13809;48.632;11.576;2023-07-24T13:09:01;24.50;41.60
26035;DHT22;13809;48.632;11.576;2023-07-24T13:14:04;24.40;42.20
26035;DHT22;13809;48.632;11.576;2023-07-24T13:19:08;24.30;42.20
26035;DHT22;13809;48.632;11.576;2023-07-24T13:24:12;24.20;42.50
26035;DHT22;13809;48.632;11.576;2023-07-24T13:29:15;24.10;43.90
26035;DHT22;13809;48.632;11.576;2023-07-24T13:34:19;24.10;43.20
26035;DHT22;13809;48.632;11.576;2023-07-24T13:39:24;24.20;43.30
26035;DHT22;13809;48.632;11.576;2023-07-24T13:44:28;24.20;43.20
26035;DHT22;13809;48.632;11.576;2023-07-24T13:49:32;24.20;42.70
26035;DHT22;13809;48.632;11.576;2023-07-24T13:54:36;24.10;42.70
26035;DHT22;13809;48.632;11.576;2023-07-24T13:59:39;24.10;43.70
26035;DHT22;13809;48.632;11.576;2023-07-24T14:04:43;24.10;43.00
26035;DHT22;13809;48.632;11.576;2023-07-24T14:09:47;24.20;43.00
26035;DHT22;13809;48.632;11.576;2023-07-24T14:14:50;24.30;43.00
26035;DHT22;13809;48.632;11.576;2023-07-24T14:19:54;24.30;42.70
26035;DHT22;13809;48.632;11.576;2023-07-24T14:24:58;24.40;43.60
26035;DHT22;13809;48.632;11.576;2023-07-24T14:30:02;24.40;42.60
26035;DHT22;13809;48.632;11.576;2023-07-24T14:35:06;24.40;42.60
26035;DHT22;13809;48.632;11.576;2023-07-24T14:40:12;24.40;42.90
26035;DHT22;13809;48.632;11.576;2023-07-24T14:45:15;24.40;42.90
26035;DHT22;13809;48.632;11.576;2023-07-24T14:50:18;24.60;43.10
26035;DHT22;13809;48.632;11.576;2023-07-24T14:55:23;24.70;42.90
26035;DHT22;13809;48.632;11.576;2023-07-24T15:00:26;24.90;42.70
26035;DHT22;13809;48.632;11.576;2023-07-24T15:05:31;24.90;42.60
26035;DHT22;13809;48.632;11.576;2023-07-24T15:10:35;25.00;41.70
26035;DHT22;13809;48.632;11.576;2023-07-24T15:15:38;25.10;41.70
26035;DHT22;13809;48.632;11.576;2023-07-24T15:20:42;25.20;41.20
26035;DHT22;13809;48.632;11.576;2023-07-24T15:25:46;25.20;41.40
26035;DHT22;13809;48.632;11.576;2023-07-24T15:30:49;25.20;41.00
26035;DHT22;13809;48.632;11.576;2023-07-24T15:35:53;25.30;41.10
26035;DHT22;13809;48.632;11.576;2023-07-24T15:40:57;25.40;41.20
26035;DHT22;13809;48.632;11.576;2023-07-24T15:46:00;25.40;41.20
26035;DHT22;13809;48.632;11.576;2023-07-24T15:51:04;25.50;40.60
26035;DHT22;13809;48.632;11.576;2023-07-24T15:56:08;25.40;40.50
26035;DHT22;13809;48.632;11.576;2023-07-24T16:01:13;25.30;41.10
26035;DHT22;13809;48.632;11.576;2023-07-24T16:06:17;25.20;40.80
26035;DHT22;13809;48.632;11.576;2023-07-24T16:11:21;25.00;40.50
26035;DHT22;13809;48.632;11.576;2023-07-24T16:16:24;24.70;40.60
26035;DHT22;13809;48.632;11.576;2023-07-24T16:21:27;24.30;40.30
26035;DHT22;13809;48.632;11.576;2023-07-24T16:26:35;24.10;40.70
26035;DHT22;13809;48.632;11.576;2023-07-24T16:31:39;24.00;42.00
26035;DHT22;13809;48.632;11.576;2023-07-24T16:36:42;23.90;41.80
26035;DHT22;13809;48.632;11.576;2023-07-24T16:41:48;23.80;42.00
26035;DHT22;13809;48.632;11.576;2023-07-24T16:46:51;23.80;42.80
26035;DHT22;13809;48.632;11.576;2023-07-24T16:52:13;23.70;42.50
26035;DHT22;13809;48.632;11.576;2023-07-24T16:57:17;23.70;42.60
26035;DHT22;13809;48.632;11.576;2023-07-24T17:02:20;23.80;42.90
26035;DHT22;13809;48.632;11.576;2023-07-24T17:07:24;23.90;42.70
26035;DHT22;13809;48.632;11.576;2023-07-24T17:12:28;24.00;42.60
26035;DHT22;13809;48.632;11.576;2023-07-24T17:17:32;24.10;42.50
26035;DHT22;13809;48.632;11.576;2023-07-24T17:22:35;24.20;42.10
26035;DHT22;13809;48.632;11.576;2023-07-24T17:27:48;24.10;42.30
26035;DHT22;13809;48.632;11.576;2023-07-24T17:32:51;24.20;43.80
26035;DHT22;13809;48.632;11.576;2023-07-24T17:37:55;24.30;42.40
26035;DHT22;13809;48.632;11.576;2023-07-24T17:42:59;24.40;42.30
26035;DHT22;13809;48.632;11.576;2023-07-24T17:48:03;24.50;42.40
26035;DHT22;13809;48.632;11.576;2023-07-24T17:53:07;24.60;42.00
26035;DHT22;13809;48.632;11.576;2023-07-24T17:58:11;24.50;42.00
26035;DHT22;13809;48.632;11.576;2023-07-24T18:03:16;24.30;42.70
26035;DHT22;13809;48.632;11.576;2023-07-24T18:08:20;24.20;43.20
26035;DHT22;13809;48.632;11.576;2023-07-24T18:13:24;24.10;43.10
26035;DHT22;13809;48.632;11.576;2023-07-24T18:18:27;23.90;43.70
26035;DHT22;13809;48.632;11.576;2023-07-24T18:23:31;23.90;43.60
26035;DHT22;13809;48.632;11.576;2023-07-24T18:28:37;23.90;43.80
26035;DHT22;13809;48.632;11.576;2023-07-24T18:33:43;23.80;44.00
26035;DHT22;13809;48.632;11.576;2023-07-24T18:38:46;23.80;43.60
26035;DHT22;13809;48.632;11.576;2023-07-24T18:43:51;23.80;43.60
26035;DHT22;13809;48.632;11.576;2023-07-24T18:48:54;23.70;43.80
26035;DHT22;13809;48.632;11.576;2023-07-24T18:53:57;23.60;43.60
26035;DHT22;13809;48.632;11.576;2023-07-24T18:59:02;23.60;43.90
26035;DHT22;13809;48.632;11.576;2023-07-24T19:04:06;23.50;44.40
26035;DHT22;13809;48.632;11.576;2023-07-24T19:09:10;23.50;44.00
26035;DHT22;13809;48.632;11.576;2023-07-24T19:14:14;23.50;44.10
26035;DHT22;13809;48.632;11.576;2023-07-24T19:19:18;23.40;44.60
26035;DHT22;13809;48.632;11.576;2023-07-24T19:24:21;23.30;44.20
26035;DHT22;13809;48.632;11.576;2023-07-24T19:29:25;23.30;44.20
26035;DHT22;13809;48.632;11.576;2023-07-24T19:34:29;23.30;44.70
26035;DHT22;13809;48.632;11.576;2023-07-24T19:39:32;23.30;44.20
26035;DHT22;13809;48.632;11.576;2023-07-24T19:44:37;23.30;44.40
26035;DHT22;13809;48.632;11.576;2023-07-24T19:49:40;23.30;44.70
26035;DHT22;13809;48.632;11.576;2023-07-24T19:54:43;23.40;44.30
26035;DHT22;13809;48.632;11.576;2023-07-24T19:59:48;23.50;44.10
26035;DHT22;13809;48.632;11.576;2023-07-24T20:04:51;23.50;44.40
26035;DHT22;13809;48.632;11.576;2023-07-24T20:09:56;23.50;44.00
26035;DHT22;13809;48.632;11.576;2023-07-24T20:15:00;23.50;44.00
26035;DHT22;13809;48.632;11.576;2023-07-24T20:20:07;23.50;44.10
26035;DHT22;13809;48.632;11.576;2023-07-24T20:25:10;23.50;43.80
26035;DHT22;13809;48.632;11.576;2023-07-24T20:30:15;23.50;43.70
26035;DHT22;13809;48.632;11.576;2023-07-24T20:35:18;23.40;44.00
26035;DHT22;13809;48.632;11.576;2023-07-24T20:40:21;23.30;43.70
26035;DHT22;13809;48.632;11.576;2023-07-24T20:45:26;23.20;43.90
26035;DHT22;13809;48.632;11.576;2023-07-24T20:50:29;23.10;44.30
26035;DHT22;13809;48.632;11.576;2023-07-24T20:55:32;23.10;44.10
26035;DHT22;13809;48.632;11.576;2023-07-24T21:00:37;22.90;43.80
26035;DHT22;13809;48.632;11.576;2023-07-24T21:05:41;22.90;44.20
26035;DHT22;13809;48.632;11.576;2023-07-24T21:10:44;22.80;44.00
26035;DHT22;13809;48.632;11.576;2023-07-24T21:15:49;22.70;44.10
26035;DHT22;13809;48.632;11.576;2023-07-24T21:20:53;22.70;44.30
26035;DHT22;13809;48.632;11.576;2023-07-24T21:25:56;22.80;44.30
26035;DHT22;13809;48.632;11.576;2023-07-24T21:31:08;22.80;44.30
26035;DHT22;13809;48.632;11.576;2023-07-24T21:36:11;22.80;44.60
26035;DHT22;13809;48.632;11.576;2023-07-24T21:41:14;22.90;44.20
26035;DHT22;13809;48.632;11.576;2023-07-24T21:46:19;23.00;44.00
26035;DHT22;13809;48.632;11.576;2023-07-24T21:51:25;23.00;44.30
26035;DHT22;13809;48.632;11.576;2023-07-24T21:56:28;23.00;44.00
26035;DHT22;13809;48.632;11.576;2023-07-24T22:01:32;23.00;44.00
26035;DHT22;13809;48.632;11.576;2023-07-24T22:06:36;22.90;44.30
26035;DHT22;13809;48.632;11.576;2023-07-24T22:11:39;22.80;44.10
26035;DHT22;13809;48.632;11.576;2023-07-24T22:16:44;22.70;44.30
26035;DHT22;13809;48.632;11.576;2023-07-24T22:21:47;22.60;44.80
26035;DHT22;13809;48.632;11.576;2023-07-24T22:26:51;22.50;44.40
26035;DHT22;13809;48.632;11.576;2023-07-24T22:31:55;22.50;44.50
26035;DHT22;13809;48.632;11.576;2023-07-24T22:36:58;22.40;44.80
26035;DHT22;13809;48.632;11.576;2023-07-24T22:42:02;22.30;44.60
26035;DHT22;13809;48.632;11.576;2023-07-24T22:47:07;22.20;44.90
26035;DHT22;13809;48.632;11.576;2023-07-24T22:52:10;22.00;45.50
26035;DHT22;13809;48.632;11.576;2023-07-24T22:57:13;21.90;45.10
26035;DHT22;13809;48.632;11.576;2023-07-24T23:02:18;21.90;45.30
26035;DHT22;13809;48.632;11.576;2023-07-24T23:07:21;21.80;45.80
26035;DHT22;13809;48.632;11.576;2023-07-24T23:12:24;21.70;45.40
26035;DHT22;13809;48.632;11.576;2023-07-24T23:17:29;21.70;45.50
26035;DHT22;13809;48.632;11.576;2023-07-24T23:22:32;21.60;45.90
26035;DHT22;13809;48.632;11.576;2023-07-24T23:27:35;21.60;45.40
26035;DHT22;13809;48.632;11.576;2023-07-24T23:32:40;21.60;45.40
26035;DHT22;13809;48.632;11.576;2023-07-24T23:37:43;21.60;45.70
26035;DHT22;13809;48.632;11.576;2023-07-24T23:42:46;21.60;45.20
26035;DHT22;13809;48.632;11.576;2023-07-24T23:47:51;21.60;45.30
26035;DHT22;13809;48.632;11.576;2023-07-24T23:52:54;21.60;45.60
26035;DHT22;13809;48.632;11.576;2023-07-24T23:58:00;21.50;45.40
